createdAt,value
2018-01-10T00:01:27.057Z,1.03
2018-01-10T00:03:59.519Z,1.40
2018-01-10T00:06:31.791Z,1.30
2018-01-10T00:09:02.984Z,1.40
2018-01-10T00:11:34.584Z,1.97
2018-01-10T00:14:05.825Z,1.30
2018-01-10T00:16:37.167Z,1.40
2018-01-10T00:19:07.984Z,1.70
2018-01-10T00:21:39.851Z,2.10
2018-01-10T00:24:11.103Z,1.30
2018-01-10T00:26:41.952Z,1.40
2018-01-10T00:29:13.110Z,1.50
2018-01-10T00:31:43.784Z,2.10
2018-01-10T00:34:15.613Z,1.90
2018-01-10T00:36:47.494Z,1.40
2018-01-10T00:39:20.372Z,1.20
2018-01-10T00:41:51.342Z,1.40
2018-01-10T00:44:22.833Z,1.50
2018-01-10T00:46:54.000Z,1.40
2018-01-10T00:49:24.931Z,1.30
2018-01-10T00:51:55.810Z,1.00
2018-01-10T00:54:27.024Z,1.92
2018-01-10T00:56:57.759Z,1.52
2018-01-10T00:59:28.714Z,1.40
2018-01-10T01:01:59.873Z,1.30
2018-01-10T01:04:30.693Z,1.40
2018-01-10T01:07:01.776Z,1.27
2018-01-10T01:09:32.614Z,1.40
2018-01-10T01:12:04.014Z,1.20
2018-01-10T01:14:35.136Z,1.50
2018-01-10T01:17:06.905Z,1.80
2018-01-10T01:19:37.702Z,1.45
2018-01-10T01:22:08.923Z,1.30
2018-01-10T01:24:40.373Z,1.23
2018-01-10T01:27:11.682Z,1.30
2018-01-10T01:29:42.487Z,2.30
2018-01-10T01:32:13.782Z,1.77
2018-01-10T01:34:45.456Z,1.67
2018-01-10T01:37:16.685Z,3.40
2018-01-10T01:39:48.069Z,2.00
2018-01-10T01:42:19.464Z,2.08
2018-01-10T01:44:50.798Z,2.55
2018-01-10T01:47:21.556Z,2.00
2018-01-10T01:49:53.899Z,2.00
2018-01-10T01:52:24.796Z,1.70
2018-01-10T01:54:56.097Z,1.65
2018-01-10T01:57:27.065Z,2.28
2018-01-10T01:59:57.971Z,2.58
2018-01-10T02:02:28.726Z,1.70
2018-01-10T02:05:00.246Z,2.25
2018-01-10T02:07:30.964Z,1.73
2018-01-10T02:10:01.797Z,2.30
2018-01-10T02:12:32.663Z,1.90
2018-01-10T02:15:03.582Z,1.60
2018-01-10T02:17:34.492Z,1.90
2018-01-10T02:20:05.518Z,1.90
2018-01-10T02:22:36.938Z,2.10
2018-01-10T02:25:07.671Z,1.77
2018-01-10T02:27:38.653Z,2.37
2018-01-10T02:30:09.423Z,1.90
2018-01-10T02:32:40.107Z,2.40
2018-01-10T02:35:12.516Z,2.17
2018-01-10T02:37:43.117Z,2.60
2018-01-10T02:40:15.112Z,1.80
2018-01-10T02:42:45.936Z,1.60
2018-01-10T02:45:16.713Z,2.20
2018-01-10T02:47:47.506Z,1.90
2018-01-10T02:50:18.565Z,2.40
2018-01-10T02:52:49.441Z,1.77
2018-01-10T02:55:20.474Z,2.00
2018-01-10T02:57:51.238Z,1.40
2018-01-10T03:00:22.316Z,2.20
2018-01-10T03:02:53.292Z,1.30
2018-01-10T03:05:23.958Z,1.90
2018-01-10T03:07:54.820Z,1.50
2018-01-10T03:10:26.736Z,1.80
2018-01-10T03:12:57.442Z,1.80
2018-01-10T03:15:28.364Z,1.60
2018-01-10T03:17:59.042Z,2.00
2018-01-10T03:20:30.221Z,2.47
2018-01-10T03:23:01.072Z,2.67
2018-01-10T03:25:31.734Z,2.97
2018-01-10T03:28:02.977Z,2.08
2018-01-10T03:30:40.874Z,2.25
2018-01-10T03:33:11.731Z,2.60
2018-01-10T03:35:42.839Z,2.20
2018-01-10T03:38:14.222Z,1.80
2018-01-10T03:40:45.213Z,1.87
2018-01-10T03:43:16.223Z,1.90
2018-01-10T03:45:47.635Z,2.00
2018-01-10T03:48:18.714Z,1.95
2018-01-10T03:50:49.880Z,2.10
2018-01-10T03:53:20.874Z,2.28
2018-01-10T03:55:51.855Z,2.15
2018-01-10T03:58:22.596Z,1.95
2018-01-10T04:00:56.469Z,2.00
2018-01-10T04:03:27.338Z,2.20
2018-01-10T04:05:58.236Z,2.58
2018-01-10T04:08:30.991Z,2.50
2018-01-10T04:11:01.833Z,2.70
2018-01-10T04:13:32.332Z,2.60
2018-01-10T04:16:04.490Z,2.95
2018-01-10T04:18:35.356Z,2.70
2018-01-10T04:21:06.405Z,1.90
2018-01-10T04:23:37.652Z,1.80
2018-01-10T04:26:09.017Z,1.62
2018-01-10T04:28:40.169Z,1.63
2018-01-10T04:31:13.085Z,2.40
2018-01-10T04:33:44.221Z,2.45
2018-01-10T04:36:16.803Z,2.10
2018-01-10T04:38:48.052Z,2.00
2018-01-10T04:41:22.279Z,2.60
2018-01-10T04:43:58.059Z,1.83
2018-01-10T04:46:30.679Z,3.03
2018-01-10T04:49:02.974Z,3.00
2018-01-10T04:51:33.640Z,3.20
2018-01-10T04:54:04.362Z,3.65
2018-01-10T04:56:36.052Z,3.50
2018-01-10T04:59:08.071Z,2.90
2018-01-10T05:01:41.158Z,2.67
2018-01-10T05:04:12.196Z,3.30
2018-01-10T05:07:01.599Z,3.40
2018-01-10T05:09:33.618Z,3.70
2018-01-10T05:12:09.086Z,3.10
2018-01-10T05:14:43.306Z,3.12
2018-01-10T05:17:14.242Z,3.20
2018-01-10T05:19:47.024Z,3.53
2018-01-10T05:22:18.840Z,4.10
2018-01-10T05:24:49.900Z,3.10
2018-01-10T05:27:20.321Z,3.05
2018-01-10T05:29:50.945Z,3.85
2018-01-10T05:32:21.716Z,3.87
2018-01-10T05:34:53.493Z,2.95
2018-01-10T05:37:26.990Z,3.20
2018-01-10T05:39:59.586Z,3.30
2018-01-10T05:42:30.301Z,3.67
2018-01-10T05:45:01.393Z,3.50
2018-01-10T05:47:33.061Z,3.90
2018-01-10T05:50:05.221Z,4.05
2018-01-10T05:52:36.736Z,4.30
2018-01-10T05:55:08.284Z,4.07
2018-01-10T05:57:39.101Z,4.10
2018-01-10T06:00:10.086Z,4.30
2018-01-10T06:02:41.213Z,4.70
2018-01-10T06:05:11.800Z,4.20
2018-01-10T06:07:44.350Z,4.20
2018-01-10T06:10:15.703Z,4.70
2018-01-10T06:12:47.452Z,4.60
2018-01-10T06:15:25.972Z,4.25
2018-01-10T06:17:57.395Z,4.55
2018-01-10T06:20:28.179Z,4.10
2018-01-10T06:23:28.808Z,4.28
2018-01-10T06:26:04.897Z,3.80
2018-01-10T06:28:45.110Z,4.30
2018-01-10T06:31:15.699Z,4.00
2018-01-10T06:33:49.368Z,5.10
2018-01-10T06:36:45.163Z,4.90
2018-01-10T06:39:16.601Z,4.27
2018-01-10T06:41:49.034Z,5.90
2018-01-10T06:44:19.843Z,6.30
2018-01-10T06:46:50.525Z,7.40
2018-01-10T06:49:22.167Z,6.37
2018-01-10T06:55:30.171Z,5.90
2018-01-10T06:58:01.192Z,4.40
2018-01-10T07:00:38.177Z,4.93
2018-01-10T07:03:13.292Z,6.13
2018-01-10T07:05:44.718Z,6.40
2018-01-10T07:08:16.521Z,5.47
2018-01-10T07:10:47.534Z,5.87
2018-01-10T07:13:18.529Z,5.57
2018-01-10T07:15:49.767Z,5.95
2018-01-10T07:18:21.197Z,5.50
2018-01-10T07:20:53.528Z,4.33
2018-01-10T07:26:50.713Z,7.03
2018-01-10T07:29:24.047Z,5.47
2018-01-10T07:31:55.883Z,4.30
2018-01-10T07:34:29.904Z,3.70
2018-01-10T07:37:03.628Z,3.70
2018-01-10T07:39:37.007Z,4.10
2018-01-10T07:42:09.975Z,3.95
2018-01-10T07:44:40.997Z,4.05
2018-01-10T07:47:12.172Z,3.53
2018-01-10T07:49:43.452Z,3.15
2018-01-10T07:52:14.935Z,3.17
2018-01-10T07:54:46.370Z,4.40
2018-01-10T07:57:17.518Z,3.90
2018-01-10T07:59:48.205Z,3.90
2018-01-10T08:02:19.742Z,4.33
2018-01-10T08:04:52.011Z,3.70
2018-01-10T08:07:22.804Z,4.37
2018-01-10T08:09:55.538Z,3.65
2018-01-10T08:12:27.803Z,3.35
2018-01-10T08:14:58.713Z,2.50
2018-01-10T08:17:30.279Z,3.20
2018-01-10T08:20:02.360Z,3.00
2018-01-10T08:22:32.920Z,3.28
2018-01-10T08:25:07.881Z,3.37
2018-01-10T08:27:38.811Z,2.90
2018-01-10T08:30:09.940Z,3.80
2018-01-10T08:32:40.528Z,2.78
2018-01-10T08:35:13.047Z,3.12
2018-01-10T08:37:52.274Z,2.78
2018-01-10T08:40:27.196Z,2.80
2018-01-10T08:42:58.819Z,2.80
2018-01-10T08:45:30.850Z,2.47
2018-01-10T08:48:01.780Z,2.60
2018-01-10T08:50:33.734Z,2.60
2018-01-10T08:53:06.545Z,2.97
2018-01-10T08:55:37.727Z,3.10
2018-01-10T08:58:08.673Z,2.80
2018-01-10T09:00:42.244Z,1.95
2018-01-10T09:03:12.997Z,2.35
2018-01-10T09:05:44.822Z,2.10
2018-01-10T09:08:16.524Z,2.40
2018-01-10T09:10:49.074Z,2.37
2018-01-10T09:13:21.032Z,2.20
2018-01-10T09:15:53.242Z,2.03
2018-01-10T09:18:24.308Z,2.40
2018-01-10T09:20:55.742Z,2.22
2018-01-10T09:23:29.926Z,2.10
2018-01-10T09:26:11.331Z,2.33
2018-01-10T09:28:58.661Z,2.17
2018-01-10T09:33:41.509Z,3.40
2018-01-10T09:36:12.973Z,2.05
2018-01-10T09:38:45.087Z,2.45
2018-01-10T09:41:16.480Z,2.67
2018-01-10T09:47:10.058Z,2.60
2018-01-10T09:49:52.158Z,3.65
2018-01-10T09:52:24.280Z,2.95
2018-01-10T09:54:57.900Z,2.90
2018-01-10T09:57:30.269Z,2.10
2018-01-10T10:00:02.652Z,2.80
2018-01-10T10:02:36.291Z,3.37
2018-01-10T10:05:07.670Z,2.60
2018-01-10T10:07:43.047Z,2.72
2018-01-10T10:10:17.404Z,2.40
2018-01-10T10:12:48.952Z,3.50
2018-01-10T10:15:20.092Z,3.85
2018-01-10T10:17:51.397Z,5.33
2018-01-10T10:20:24.009Z,3.47
2018-01-10T10:22:55.036Z,3.65
2018-01-10T10:25:26.622Z,4.57
2018-01-10T10:30:50.024Z,4.72
2018-01-10T10:33:22.331Z,4.10
2018-01-10T10:36:39.832Z,4.45
2018-01-10T10:39:17.983Z,4.07
2018-01-10T10:41:53.119Z,2.47
2018-01-10T10:44:29.654Z,3.10
2018-01-10T10:47:03.256Z,2.30
2018-01-10T10:49:35.640Z,3.75
2018-01-10T10:52:08.744Z,4.00
2018-01-10T10:54:42.630Z,3.70
2018-01-10T10:57:14.814Z,2.03
2018-01-10T10:59:46.469Z,2.60
2018-01-10T11:02:43.239Z,3.87
2018-01-10T11:05:56.187Z,3.30
2018-01-10T11:08:53.707Z,8.10
2018-01-10T11:11:25.379Z,3.30
2018-01-10T11:13:57.006Z,4.60
2018-01-10T11:16:29.485Z,4.32
2018-01-10T11:19:04.339Z,3.00
2018-01-10T11:21:36.946Z,3.83
2018-01-10T11:24:09.585Z,5.30
2018-01-10T11:26:41.288Z,2.70
2018-01-10T11:29:11.852Z,4.03
2018-01-10T11:31:49.762Z,2.35
2018-01-10T11:34:26.028Z,2.10
2018-01-10T11:37:03.199Z,2.12
2018-01-10T11:39:34.093Z,5.33
2018-01-10T11:42:05.638Z,2.80
2018-01-10T11:44:36.518Z,5.07
2018-01-10T11:47:08.003Z,9.40
2018-01-10T11:49:41.567Z,6.47
2018-01-10T11:52:18.177Z,8.38
2018-01-10T11:54:49.306Z,9.35
2018-01-10T11:57:19.987Z,6.00
2018-01-10T11:59:51.736Z,5.68
2018-01-10T12:02:23.865Z,7.05
2018-01-10T12:04:56.813Z,5.62
2018-01-10T12:07:38.821Z,4.12
2018-01-10T12:10:17.765Z,3.30
2018-01-10T12:13:01.715Z,3.40
2018-01-10T12:15:32.785Z,3.35
2018-01-10T12:18:07.439Z,3.28
2018-01-10T12:20:39.557Z,3.47
2018-01-10T12:23:10.658Z,4.30
2018-01-10T12:25:41.733Z,3.33
2018-01-10T12:28:12.550Z,4.05
2018-01-10T12:30:45.556Z,3.70
2018-01-10T12:33:19.592Z,3.90
2018-01-10T12:35:51.083Z,4.50
2018-01-10T12:41:58.636Z,3.75
2018-01-10T12:44:38.268Z,3.75
2018-01-10T12:47:15.971Z,3.72
2018-01-10T12:49:49.790Z,4.00
2018-01-10T12:52:22.979Z,3.50
2018-01-10T12:54:55.300Z,3.22
2018-01-10T12:57:27.712Z,3.70
2018-01-10T12:59:58.551Z,2.90
2018-01-10T13:02:30.591Z,3.85
2018-01-10T13:05:05.788Z,3.95
2018-01-10T13:07:38.513Z,4.25
2018-01-10T13:10:11.923Z,4.65
2018-01-10T13:12:43.753Z,4.22
2018-01-10T13:15:14.656Z,3.87
2018-01-10T13:17:46.648Z,3.85
2018-01-10T13:20:17.920Z,3.95
2018-01-10T13:27:03.042Z,4.40
2018-01-10T13:29:44.600Z,4.53
2018-01-10T13:32:16.068Z,5.10
2018-01-10T13:34:47.521Z,4.40
2018-01-10T13:37:19.796Z,4.90
2018-01-10T13:39:51.224Z,4.50
2018-01-10T13:42:38.907Z,5.20
2018-01-10T13:45:14.712Z,4.90
2018-01-10T13:47:48.241Z,4.60
2018-01-10T13:50:32.269Z,5.60
2018-01-10T13:53:03.135Z,5.40
2018-01-10T13:55:42.953Z,6.10
2018-01-10T13:58:13.740Z,5.40
2018-01-10T14:00:44.844Z,4.75
2018-01-10T14:03:19.968Z,5.30
2018-01-10T14:05:59.911Z,5.40
2018-01-10T14:08:30.843Z,6.30
2018-01-10T14:11:03.934Z,6.80
2018-01-10T14:13:37.980Z,6.45
2018-01-10T14:16:10.581Z,5.60
2018-01-10T14:18:42.094Z,5.82
2018-01-10T14:21:12.853Z,5.50
2018-01-10T14:23:44.632Z,5.68
2018-01-10T14:26:16.471Z,5.93
2018-01-10T14:28:48.110Z,5.87
2018-01-10T14:31:21.202Z,6.07
2018-01-10T14:33:53.678Z,5.60
2018-01-10T14:37:07.842Z,6.60
2018-01-10T14:39:39.309Z,5.82
2018-01-10T14:42:13.324Z,4.85
2018-01-10T14:45:11.699Z,5.70
2018-01-10T14:47:54.668Z,6.80
2018-01-10T14:50:46.223Z,6.50
2018-01-10T14:53:22.403Z,6.80
2018-01-10T14:55:54.116Z,23.45
2018-01-10T14:58:33.666Z,9.95
2018-01-10T15:01:08.639Z,10.02
2018-01-10T15:03:39.851Z,14.20
2018-01-10T15:06:10.961Z,8.00
2018-01-10T15:09:09.400Z,6.70
2018-01-10T15:11:56.413Z,6.57
2018-01-10T15:16:57.663Z,5.10
2018-01-10T15:19:29.031Z,5.00
2018-01-10T15:22:01.549Z,4.07
2018-01-10T15:24:32.615Z,3.87
2018-01-10T15:27:04.412Z,3.40
2018-01-10T15:29:40.087Z,3.80
2018-01-10T15:33:06.221Z,3.80
2018-01-10T15:35:58.176Z,4.80
2018-01-10T15:38:32.858Z,4.10
2018-01-10T15:41:05.680Z,4.75
2018-01-10T15:43:37.616Z,3.80
2018-01-10T15:46:08.898Z,4.40
2018-01-10T15:48:49.306Z,4.93
2018-01-10T15:51:20.240Z,5.10
2018-01-10T15:54:05.633Z,4.72
2018-01-10T15:56:38.936Z,4.50
2018-01-10T15:59:09.848Z,4.40
2018-01-10T16:01:40.527Z,4.80
2018-01-10T16:04:11.748Z,4.93
2018-01-10T16:06:48.583Z,5.82
2018-01-10T16:09:20.372Z,5.80
2018-01-10T16:11:51.304Z,6.37
2018-01-10T16:14:22.646Z,4.70
2018-01-10T16:16:54.342Z,5.78
2018-01-10T16:19:26.170Z,5.80
2018-01-10T16:22:05.730Z,4.75
2018-01-10T16:24:38.595Z,4.27
2018-01-10T16:27:31.521Z,4.22
2018-01-10T16:30:05.607Z,5.30
2018-01-10T16:32:41.330Z,5.37
2018-01-10T16:35:21.218Z,4.87
2018-01-10T16:37:53.058Z,7.07
2018-01-10T16:40:27.832Z,6.25
2018-01-10T16:43:07.136Z,3.87
2018-01-10T16:45:38.676Z,4.37
2018-01-10T16:48:10.750Z,4.50
2018-01-10T16:50:41.684Z,6.20
2018-01-10T16:53:13.932Z,6.80
2018-01-10T16:55:46.258Z,8.53
2018-01-10T16:58:23.114Z,5.82
2018-01-10T17:00:54.300Z,7.10
2018-01-10T17:04:20.857Z,5.25
2018-01-10T17:07:00.372Z,5.18
2018-01-10T17:09:36.372Z,5.05
2018-01-10T17:12:24.271Z,5.28
2018-01-10T17:14:55.551Z,4.93
2018-01-10T17:17:27.090Z,4.80
2018-01-10T17:21:23.566Z,5.50
2018-01-10T17:23:58.040Z,6.47
2018-01-10T17:26:59.992Z,6.50
2018-01-10T17:29:32.015Z,6.90
2018-01-10T17:32:07.944Z,7.15
2018-01-10T17:34:40.192Z,6.68
2018-01-10T17:37:11.201Z,5.97
2018-01-10T17:39:43.622Z,5.87
2018-01-10T17:42:18.432Z,5.20
2018-01-10T17:44:58.553Z,6.10
2018-01-10T17:47:32.022Z,5.22
2018-01-10T17:50:02.770Z,5.50
2018-01-10T17:52:34.064Z,7.00
2018-01-10T17:55:07.173Z,6.82
2018-01-10T17:57:38.537Z,8.02
2018-01-10T18:00:09.741Z,8.20
2018-01-10T18:02:42.002Z,7.28
2018-01-10T18:05:15.217Z,6.20
2018-01-10T18:07:47.193Z,6.03
2018-01-10T18:10:19.305Z,6.65
2018-01-10T18:12:50.529Z,4.95
2018-01-10T18:15:21.000Z,4.32
2018-01-10T18:17:52.978Z,5.20
2018-01-10T18:20:26.337Z,6.40
2018-01-10T18:23:14.272Z,9.80
2018-01-10T18:25:45.624Z,10.65
2018-01-10T18:28:17.704Z,15.23
2018-01-10T18:30:48.404Z,15.90
2018-01-10T18:33:20.696Z,13.15
2018-01-10T18:35:51.053Z,12.32
2018-01-10T18:38:21.873Z,12.35
2018-01-10T18:40:52.931Z,11.15
2018-01-10T18:43:23.716Z,10.50
2018-01-10T18:45:54.600Z,10.57
2018-01-10T18:48:28.873Z,11.82
2018-01-10T18:51:02.463Z,5.95
2018-01-10T18:53:35.700Z,5.72
2018-01-10T18:56:08.271Z,4.70
2018-01-10T18:58:39.069Z,4.18
2018-01-10T19:01:09.840Z,6.10
2018-01-10T19:03:41.354Z,5.78
2018-01-10T19:06:12.984Z,5.03
2018-01-10T19:08:44.325Z,7.25
2018-01-10T19:11:15.774Z,8.00
2018-01-10T19:13:46.815Z,8.80
2018-01-10T19:16:17.408Z,9.23
2018-01-10T19:18:53.623Z,6.22
2018-01-10T19:21:25.398Z,4.90
2018-01-10T19:23:56.667Z,5.25
2018-01-10T19:26:28.165Z,5.35
2018-01-10T19:28:59.461Z,5.40
2018-01-10T19:31:29.848Z,8.45
2018-01-10T19:34:15.620Z,5.72
2018-01-10T19:36:46.641Z,5.80
2018-01-10T19:39:17.669Z,7.18
2018-01-10T19:41:48.458Z,8.70
2018-01-10T19:44:22.226Z,6.45
2018-01-10T19:46:52.922Z,6.78
2018-01-10T19:49:24.192Z,6.70
2018-01-10T19:51:55.046Z,6.80
2018-01-10T19:54:26.346Z,6.93
2018-01-10T19:56:57.160Z,5.87
2018-01-10T19:59:29.484Z,5.35
2018-01-10T20:02:00.763Z,4.77
2018-01-10T20:04:32.037Z,9.45
2018-01-10T20:07:03.612Z,5.05
2018-01-10T20:10:09.632Z,5.70
2018-01-10T20:12:40.898Z,6.97
2018-01-10T20:15:12.428Z,6.07
2018-01-10T20:17:44.313Z,5.80
2018-01-10T20:20:16.861Z,4.70
2018-01-10T20:22:48.515Z,4.93
2018-01-10T20:25:19.141Z,5.50
2018-01-10T20:27:49.992Z,4.70
2018-01-10T20:30:21.694Z,5.10
2018-01-10T20:32:53.224Z,5.30
2018-01-10T20:35:23.564Z,4.75
2018-01-10T20:37:54.168Z,4.53
2018-01-10T20:40:27.092Z,4.60
2018-01-10T20:43:00.586Z,5.30
2018-01-10T20:45:37.232Z,5.05
2018-01-10T20:48:07.869Z,5.45
2018-01-10T20:50:39.771Z,6.18
2018-01-10T20:53:11.507Z,5.37
2018-01-10T20:55:43.611Z,6.00
2018-01-10T20:58:14.391Z,6.28
2018-01-10T21:00:45.138Z,6.40
2018-01-10T21:03:16.118Z,5.05
2018-01-10T21:05:46.870Z,5.55
2018-01-10T21:08:18.385Z,5.15
2018-01-10T21:10:49.509Z,4.78
2018-01-10T21:13:22.173Z,5.00
2018-01-10T21:15:53.825Z,5.20
2018-01-10T21:18:24.900Z,4.78
2018-01-10T21:20:58.481Z,4.73
2018-01-10T21:23:29.240Z,4.03
2018-01-10T21:25:59.595Z,5.35
2018-01-10T21:28:30.286Z,4.43
2018-01-10T21:31:00.921Z,6.18
2018-01-10T21:33:31.648Z,5.53
2018-01-10T21:36:10.154Z,4.20
2018-01-10T21:38:43.524Z,5.70
2018-01-10T21:41:14.556Z,5.30
2018-01-10T21:43:47.701Z,4.70
2018-01-10T21:46:23.328Z,4.60
2018-01-10T21:48:55.482Z,4.68
2018-01-10T21:51:27.147Z,4.90
2018-01-10T21:53:58.196Z,5.97
2018-01-10T21:56:29.944Z,5.03
2018-01-10T21:59:00.890Z,4.80
2018-01-10T22:01:32.841Z,5.30
2018-01-10T22:04:03.730Z,5.62
2018-01-10T22:06:34.619Z,4.72
2018-01-10T22:09:05.692Z,4.37
2018-01-10T22:11:36.782Z,4.70
2018-01-10T22:14:07.559Z,5.85
2018-01-10T22:16:38.251Z,5.93
2018-01-10T22:19:09.194Z,5.72
2018-01-10T22:21:41.034Z,5.17
2018-01-10T22:24:12.389Z,4.62
2018-01-10T22:26:43.824Z,4.55
2018-01-10T22:29:14.235Z,4.80
2018-01-10T22:31:45.014Z,4.80
2018-01-10T22:34:17.882Z,4.87
2018-01-10T22:36:49.346Z,5.28
2018-01-10T22:39:21.537Z,5.30
2018-01-10T22:41:52.034Z,4.40
2018-01-10T22:44:22.314Z,5.05
2018-01-10T22:46:54.575Z,6.22
2018-01-10T22:49:25.724Z,4.10
2018-01-10T22:51:56.171Z,5.10
2018-01-10T22:54:28.093Z,4.68
2018-01-10T22:56:59.423Z,4.80
2018-01-10T22:59:31.199Z,4.97
2018-01-10T23:02:01.765Z,5.10
2018-01-10T23:04:32.446Z,4.55
2018-01-10T23:07:03.973Z,5.80
2018-01-10T23:09:34.941Z,5.20
2018-01-10T23:12:06.303Z,5.20
2018-01-10T23:14:37.936Z,5.43
2018-01-10T23:17:09.629Z,5.43
2018-01-10T23:19:40.452Z,5.93
2018-01-10T23:22:12.057Z,5.00
2018-01-10T23:24:42.960Z,6.00
2018-01-10T23:27:14.009Z,6.22
2018-01-10T23:29:45.707Z,5.82
2018-01-10T23:32:16.538Z,4.80
2018-01-10T23:34:48.439Z,5.57
2018-01-10T23:37:18.948Z,4.60
2018-01-10T23:39:49.892Z,4.65
2018-01-10T23:42:22.400Z,5.18
2018-01-10T23:44:53.234Z,5.50
2018-01-10T23:47:23.994Z,4.35
2018-01-10T23:49:54.930Z,4.90
2018-01-10T23:52:26.655Z,5.93
2018-01-10T23:54:57.159Z,6.12
2018-01-10T23:57:27.951Z,5.90
2018-01-10T23:59:58.778Z,4.82
